createdAt,value
2022-10-10T00:01:34.331Z,100165.72
2022-10-10T00:04:03.437Z,100156.97
2022-10-10T00:06:33.776Z,100150.88
2022-10-10T00:09:02.548Z,100156.22
2022-10-10T00:11:31.593Z,100151.88
2022-10-10T00:14:00.047Z,100151.91
2022-10-10T00:16:28.961Z,100146.72
2022-10-10T00:18:57.287Z,100150.25
2022-10-10T00:21:25.799Z,100145.91
2022-10-10T00:23:55.477Z,100147.69
2022-10-10T00:26:23.822Z,100152.97
2022-10-10T00:28:52.177Z,100148.66
2022-10-10T00:31:20.634Z,100153.00
2022-10-10T00:33:49.120Z,100155.66
2022-10-10T00:36:20.391Z,100148.72
2022-10-10T00:38:49.354Z,100154.91
2022-10-10T00:41:19.266Z,100160.22
2022-10-10T00:44:02.894Z,100156.75
2022-10-10T00:46:34.026Z,100151.56
2022-10-10T00:49:04.072Z,100155.09
2022-10-10T00:51:32.810Z,100149.91
2022-10-10T00:54:04.000Z,100143.81
2022-10-10T00:56:39.264Z,100152.59
2022-10-10T00:59:11.183Z,100141.25
2022-10-10T01:01:40.743Z,100141.25
2022-10-10T01:04:31.561Z,100141.28
2022-10-10T01:07:01.417Z,100144.81
2022-10-10T01:09:31.171Z,100137.81
2022-10-10T01:12:10.508Z,100134.31
2022-10-10T01:14:47.662Z,100126.41
2022-10-10T01:17:25.869Z,100134.28
2022-10-10T01:20:27.552Z,100129.91
2022-10-10T01:23:15.753Z,100126.34
2022-10-10T01:26:00.629Z,100123.69
2022-10-10T01:28:40.006Z,100121.91
2022-10-10T01:31:11.922Z,100125.38
2022-10-10T01:33:49.498Z,100113.97
2022-10-10T01:36:26.803Z,100114.75
2022-10-10T01:39:02.826Z,100114.75
2022-10-10T01:41:34.410Z,100105.16
2022-10-10T01:44:04.152Z,100110.34
2022-10-10T01:46:33.793Z,100107.69
2022-10-10T01:49:03.005Z,100112.00
2022-10-10T01:51:47.797Z,100109.34
2022-10-10T01:54:34.472Z,100108.44
2022-10-10T01:57:17.459Z,100104.91
2022-10-10T02:00:00.403Z,100103.16
2022-10-10T02:02:38.373Z,100095.25
2022-10-10T02:05:15.854Z,100096.94
2022-10-10T02:07:49.074Z,100089.06
2022-10-10T02:10:23.850Z,100097.72
2022-10-10T02:12:53.111Z,100090.75
2022-10-10T02:15:26.710Z,100097.66
2022-10-10T02:17:57.239Z,100088.88
2022-10-10T02:20:28.588Z,100094.09
2022-10-10T02:22:57.389Z,100087.97
2022-10-10T02:25:29.861Z,100083.56
2022-10-10T02:28:09.446Z,100076.53
2022-10-10T02:30:44.401Z,100091.34
2022-10-10T02:33:17.334Z,100083.50
2022-10-10T02:35:49.333Z,100071.25
2022-10-10T02:38:19.040Z,100076.50
2022-10-10T02:40:50.091Z,100073.81
2022-10-10T02:43:20.367Z,100070.34
2022-10-10T02:45:50.391Z,100073.81
2022-10-10T02:48:18.694Z,100066.84
2022-10-10T02:50:47.101Z,100063.38
2022-10-10T02:53:15.448Z,100068.59
2022-10-10T02:55:43.872Z,100062.47
2022-10-10T02:58:12.208Z,100061.59
2022-10-10T03:00:41.065Z,100062.47
2022-10-10T03:03:10.777Z,100051.94
2022-10-10T03:05:39.098Z,100046.72
2022-10-10T03:08:11.479Z,100052.84
2022-10-10T03:10:40.259Z,100048.53
2022-10-10T03:13:08.650Z,100047.59
2022-10-10T03:15:37.117Z,100045.00
2022-10-10T03:18:06.239Z,100042.34
2022-10-10T03:20:35.991Z,100038.00
2022-10-10T03:23:04.729Z,100049.31
2022-10-10T03:25:34.802Z,100049.31
2022-10-10T03:28:03.171Z,100044.91
2022-10-10T03:30:31.555Z,100042.25
2022-10-10T03:32:59.897Z,100048.41
2022-10-10T03:35:28.297Z,100046.59
2022-10-10T03:37:59.413Z,100043.06
2022-10-10T03:40:29.035Z,100044.78
2022-10-10T03:42:57.650Z,100045.56
2022-10-10T03:45:26.134Z,100045.47
2022-10-10T03:47:54.419Z,100042.84
2022-10-10T03:50:22.749Z,100042.84
2022-10-10T03:52:51.345Z,100041.91
2022-10-10T03:55:21.384Z,100038.41
2022-10-10T03:57:49.760Z,100039.22
2022-10-10T04:00:18.239Z,100033.97
2022-10-10T04:02:46.561Z,100026.94
2022-10-10T04:05:15.016Z,100033.00
2022-10-10T04:07:45.805Z,100023.38
2022-10-10T04:10:14.163Z,100027.78
2022-10-10T04:12:43.810Z,100025.16
2022-10-10T04:15:12.128Z,100029.53
2022-10-10T04:17:40.466Z,100021.63
2022-10-10T04:20:09.635Z,100029.53
2022-10-10T04:22:37.947Z,100031.22
2022-10-10T04:25:06.821Z,100032.06
2022-10-10T04:27:35.201Z,100021.63
2022-10-10T04:30:05.619Z,100025.09
2022-10-10T04:32:33.945Z,100018.94
2022-10-10T04:35:02.220Z,100023.28
2022-10-10T04:37:30.614Z,100015.44
2022-10-10T04:39:59.254Z,100018.06
2022-10-10T04:42:27.672Z,100018.06
2022-10-10T04:44:56.139Z,100023.28
2022-10-10T04:47:26.054Z,100021.53
2022-10-10T04:49:54.347Z,100018.94
2022-10-10T04:52:22.689Z,100024.16
2022-10-10T04:54:51.121Z,100023.28
2022-10-10T04:57:19.441Z,100020.69
2022-10-10T04:59:47.814Z,100022.47
2022-10-10T05:02:16.164Z,100020.75
2022-10-10T05:04:45.866Z,100029.53
2022-10-10T05:07:14.186Z,100026.84
2022-10-10T05:09:42.518Z,100025.16
2022-10-10T05:12:10.917Z,100030.41
2022-10-10T05:14:39.207Z,100022.63
2022-10-10T05:17:07.592Z,100022.66
2022-10-10T05:19:35.880Z,100027.06
2022-10-10T05:22:05.971Z,100011.38
2022-10-10T05:24:34.653Z,100021.84
2022-10-10T05:27:02.999Z,100021.91
2022-10-10T05:29:33.546Z,100022.72
2022-10-10T05:32:04.450Z,100025.41
2022-10-10T05:34:36.099Z,100023.66
2022-10-10T05:37:05.946Z,100017.59
2022-10-10T05:39:34.320Z,100016.75
2022-10-10T05:42:03.849Z,100015.00
2022-10-10T05:44:33.587Z,100013.28
2022-10-10T05:47:01.939Z,100008.03
2022-10-10T05:49:30.337Z,100007.22
2022-10-10T05:51:58.703Z,100010.72
2022-10-10T05:54:28.396Z,100016.81
2022-10-10T05:56:56.817Z,100018.59
2022-10-10T05:59:25.520Z,100023.84
2022-10-10T06:01:53.917Z,100012.50
2022-10-10T06:04:23.025Z,100006.41
2022-10-10T06:06:51.648Z,100011.66
2022-10-10T06:09:19.999Z,100023.91
2022-10-10T06:11:50.056Z,100025.66
2022-10-10T06:14:18.500Z,100024.78
2022-10-10T06:16:46.934Z,100032.69
2022-10-10T06:19:15.386Z,100029.22
2022-10-10T06:21:43.705Z,100026.66
2022-10-10T06:24:12.081Z,100030.16
2022-10-10T06:26:43.122Z,100028.47
2022-10-10T06:29:12.813Z,100025.84
2022-10-10T06:31:41.538Z,100033.72
2022-10-10T06:34:09.855Z,100038.13
2022-10-10T06:36:38.210Z,100036.47
2022-10-10T06:39:06.620Z,100033.00
2022-10-10T06:41:34.992Z,100037.44
2022-10-10T06:44:12.890Z,100044.47
2022-10-10T06:46:41.210Z,100043.69
2022-10-10T06:49:09.603Z,100051.59
2022-10-10T06:51:38.654Z,100045.56
2022-10-10T06:54:07.143Z,100048.22
2022-10-10T06:56:35.499Z,100057.97
2022-10-10T06:59:03.873Z,100054.53
2022-10-10T07:01:33.570Z,100046.78
2022-10-10T07:04:01.955Z,100045.16
2022-10-10T07:06:34.546Z,100044.38
2022-10-10T07:09:03.479Z,100048.91
2022-10-10T07:11:32.302Z,100042.88
2022-10-10T07:14:00.642Z,100045.59
2022-10-10T07:16:29.042Z,100055.38
2022-10-10T07:18:58.710Z,100046.75
2022-10-10T07:21:27.706Z,100051.25
2022-10-10T07:23:56.394Z,100054.91
2022-10-10T07:26:28.144Z,100063.75
2022-10-10T07:28:56.425Z,100065.56
2022-10-10T07:31:24.932Z,100066.59
2022-10-10T07:33:53.271Z,100061.47
2022-10-10T07:36:22.997Z,100065.97
2022-10-10T07:38:52.958Z,100057.31
2022-10-10T07:41:21.895Z,100065.25
2022-10-10T07:43:55.022Z,100066.28
2022-10-10T07:46:23.530Z,100062.84
2022-10-10T07:48:51.940Z,100069.06
2022-10-10T07:51:20.388Z,100070.03
2022-10-10T07:53:50.111Z,100068.44
2022-10-10T07:56:18.553Z,100067.59
2022-10-10T07:58:46.882Z,100064.16
2022-10-10T08:01:15.446Z,100064.28
2022-10-10T08:03:44.032Z,100063.50
2022-10-10T08:06:14.697Z,100067.91
2022-10-10T08:08:50.731Z,100065.34
2022-10-10T08:11:22.286Z,100061.00
2022-10-10T08:13:51.410Z,100071.56
2022-10-10T08:16:20.236Z,100071.63
2022-10-10T08:18:48.704Z,100069.06
2022-10-10T08:21:17.971Z,100072.63
2022-10-10T08:23:46.677Z,100067.47
2022-10-10T08:26:16.645Z,100066.69
2022-10-10T08:28:48.443Z,100071.13
2022-10-10T08:31:19.617Z,100080.84
2022-10-10T08:33:49.046Z,100067.81
2022-10-10T08:36:19.021Z,100072.28
2022-10-10T08:38:47.830Z,100074.13
2022-10-10T08:41:23.417Z,100068.97
2022-10-10T08:43:57.595Z,100084.84
2022-10-10T08:46:35.760Z,100079.69
2022-10-10T08:49:14.486Z,100087.66
2022-10-10T08:51:47.811Z,100087.72
2022-10-10T08:54:18.493Z,100087.84
2022-10-10T08:56:47.744Z,100088.78
2022-10-10T08:59:22.577Z,100085.41
2022-10-10T09:02:17.843Z,100096.03
2022-10-10T09:04:45.283Z,100092.63
2022-10-10T09:07:24.567Z,100095.38
2022-10-10T09:10:04.337Z,100094.63
2022-10-10T09:12:47.166Z,100098.25
2022-10-10T09:15:25.221Z,100093.09
2022-10-10T09:18:03.387Z,100099.34
2022-10-10T09:20:43.724Z,100102.13
2022-10-10T09:23:21.758Z,100095.22
2022-10-10T09:25:56.508Z,100095.31
2022-10-10T09:28:36.926Z,100096.34
2022-10-10T09:31:16.479Z,100103.44
2022-10-10T09:33:49.058Z,100110.59
2022-10-10T09:36:22.294Z,100121.28
2022-10-10T09:38:54.514Z,100103.81
2022-10-10T09:41:31.007Z,100103.06
2022-10-10T09:44:01.972Z,100103.16
2022-10-10T09:46:31.764Z,100108.50
2022-10-10T09:49:00.356Z,100104.22
2022-10-10T09:51:31.872Z,100106.06
2022-10-10T09:54:00.809Z,100107.03
2022-10-10T09:56:32.670Z,100101.84
2022-10-10T09:59:00.980Z,100106.31
2022-10-10T10:01:33.479Z,100101.97
2022-10-10T10:04:29.206Z,100100.25
2022-10-10T10:07:06.911Z,100106.47
2022-10-10T10:09:35.635Z,100102.13
2022-10-10T10:12:06.496Z,100103.94
2022-10-10T10:14:38.773Z,100107.47
2022-10-10T10:17:11.119Z,100102.22
2022-10-10T10:19:41.693Z,100097.00
2022-10-10T10:22:31.130Z,100109.38
2022-10-10T10:25:00.938Z,100107.66
2022-10-10T10:27:30.190Z,100111.25
2022-10-10T10:29:59.990Z,100104.25
2022-10-10T10:32:48.643Z,100109.66
2022-10-10T10:35:29.416Z,100116.75
2022-10-10T10:38:12.607Z,100115.00
2022-10-10T10:40:46.347Z,100114.19
2022-10-10T10:43:57.239Z,100116.00
2022-10-10T10:46:37.849Z,100115.13
2022-10-10T10:49:25.394Z,100117.84
2022-10-10T10:52:21.463Z,100116.09
2022-10-10T10:55:04.296Z,100125.78
2022-10-10T10:58:04.598Z,100115.25
2022-10-10T11:01:22.280Z,100124.94
2022-10-10T11:05:21.916Z,100117.03
2022-10-10T11:07:06.523Z,100113.50
2022-10-10T11:09:50.025Z,100116.19
2022-10-10T11:12:30.376Z,100114.44
2022-10-10T11:15:02.675Z,100117.09
2022-10-10T11:17:37.733Z,100124.16
2022-10-10T11:20:17.805Z,100118.00
2022-10-10T11:22:51.611Z,100125.94
2022-10-10T11:25:24.698Z,100117.97
2022-10-10T11:27:56.440Z,100118.00
2022-10-10T11:30:26.027Z,100119.75
2022-10-10T11:33:00.945Z,100118.88
2022-10-10T11:35:35.982Z,100110.94
2022-10-10T11:38:14.291Z,100111.84
2022-10-10T11:41:02.751Z,100120.63
2022-10-10T11:43:44.455Z,100115.31
2022-10-10T11:46:24.435Z,100119.72
2022-10-10T11:49:00.653Z,100118.84
2022-10-10T11:51:41.286Z,100116.19
2022-10-10T11:54:22.200Z,100108.22
2022-10-10T11:56:54.792Z,100109.16
2022-10-10T11:59:28.950Z,100117.97
2022-10-10T12:02:00.525Z,100111.78
2022-10-10T12:04:35.774Z,100117.97
2022-10-10T12:07:07.589Z,100119.72
2022-10-10T12:09:42.995Z,100115.28
2022-10-10T12:12:20.828Z,100124.13
2022-10-10T12:14:54.169Z,100119.72
2022-10-10T12:17:29.687Z,100116.16
2022-10-10T12:20:11.313Z,100117.03
2022-10-10T12:22:39.788Z,100112.63
2022-10-10T12:25:24.310Z,100120.56
2022-10-10T12:28:06.190Z,100121.41
2022-10-10T12:30:34.694Z,100120.53
2022-10-10T12:33:07.506Z,100124.03
2022-10-10T12:35:41.465Z,100116.94
2022-10-10T12:38:18.557Z,100115.16
2022-10-10T12:41:15.627Z,100100.16
2022-10-10T12:43:49.241Z,100105.41
2022-10-10T12:46:26.726Z,100103.66
2022-10-10T12:49:18.720Z,100102.78
2022-10-10T12:52:00.876Z,100116.88
2022-10-10T12:54:34.248Z,100111.56
2022-10-10T12:57:32.065Z,100100.94
2022-10-10T13:00:06.244Z,100107.06
2022-10-10T13:02:36.087Z,100086.69
2022-10-10T13:05:05.485Z,100084.84
2022-10-10T13:07:33.893Z,100089.09
2022-10-10T13:10:11.415Z,100092.44
2022-10-10T13:12:41.117Z,100087.78
2022-10-10T13:15:20.813Z,100098.25
2022-10-10T13:17:50.609Z,100090.97
2022-10-10T13:20:30.870Z,100089.91
2022-10-10T13:23:01.319Z,100087.19
2022-10-10T13:25:30.322Z,100093.44
2022-10-10T13:28:00.509Z,100100.53
2022-10-10T13:30:29.018Z,100097.00
2022-10-10T13:32:57.647Z,100108.50
2022-10-10T13:35:28.120Z,100112.81
2022-10-10T13:37:58.884Z,100104.63
2022-10-10T13:40:28.606Z,100116.81
2022-10-10T13:42:58.581Z,100120.16
2022-10-10T13:45:45.705Z,100118.31
2022-10-10T13:48:20.725Z,100114.59
2022-10-10T13:51:06.470Z,100129.56
2022-10-10T13:53:49.780Z,100113.69
2022-10-10T13:56:24.006Z,100124.38
2022-10-10T13:58:54.886Z,100125.34
2022-10-10T14:01:35.804Z,100126.34
2022-10-10T14:04:15.388Z,100127.31
2022-10-10T14:06:51.758Z,100123.00
2022-10-10T14:09:26.258Z,100122.13
2022-10-10T14:11:56.683Z,100129.28
2022-10-10T14:14:27.244Z,100128.47
2022-10-10T14:17:00.758Z,100133.94
2022-10-10T14:19:30.048Z,100133.09
2022-10-10T14:21:58.902Z,100134.00
2022-10-10T14:24:27.658Z,100142.91
2022-10-10T14:26:56.005Z,100147.38
2022-10-10T14:29:24.889Z,100151.88
2022-10-10T14:31:53.200Z,100152.81
2022-10-10T14:34:22.893Z,100161.75
2022-10-10T14:36:51.747Z,100168.94
2022-10-10T14:39:20.792Z,100167.25
2022-10-10T14:41:49.134Z,100179.72
2022-10-10T14:44:17.531Z,100181.53
2022-10-10T14:46:45.857Z,100189.56
2022-10-10T14:49:18.498Z,100196.78
2022-10-10T14:51:48.880Z,100194.19
2022-10-10T14:54:17.186Z,100203.06
2022-10-10T14:57:08.796Z,100211.97
2022-10-10T14:59:47.521Z,100208.50
2022-10-10T15:02:22.343Z,100217.41
2022-10-10T15:04:50.998Z,100217.44
2022-10-10T15:07:20.811Z,100230.75
2022-10-10T15:10:31.694Z,100224.53
2022-10-10T15:12:41.539Z,100219.25
2022-10-10T15:15:12.246Z,100228.16
2022-10-10T15:17:40.883Z,100220.22
2022-10-10T15:20:11.633Z,100244.09
2022-10-10T15:22:42.091Z,100245.88
2022-10-10T15:25:11.122Z,100237.94
2022-10-10T15:27:39.598Z,100237.03
2022-10-10T15:30:09.641Z,100249.41
2022-10-10T15:32:41.793Z,100237.97
2022-10-10T15:35:14.651Z,100248.56
2022-10-10T15:37:45.127Z,100260.94
2022-10-10T15:40:19.462Z,100264.47
2022-10-10T15:42:48.152Z,100272.44
2022-10-10T15:45:37.029Z,100271.56
2022-10-10T15:48:05.869Z,100282.13
2022-10-10T15:50:39.165Z,100289.19
2022-10-10T15:53:08.907Z,100293.63
2022-10-10T15:55:42.369Z,100294.50
2022-10-10T15:58:10.754Z,100297.13
2022-10-10T16:00:39.719Z,100300.69
2022-10-10T16:03:08.427Z,100308.59
2022-10-10T16:05:37.935Z,100312.13
2022-10-10T16:08:08.063Z,100313.88
2022-10-10T16:10:40.024Z,100314.75
2022-10-10T16:13:09.027Z,100318.28
2022-10-10T16:15:37.468Z,100328.84
2022-10-10T16:18:06.063Z,100337.69
2022-10-10T16:20:34.496Z,100342.06
2022-10-10T16:23:02.838Z,100344.69
2022-10-10T16:25:32.541Z,100347.34
2022-10-10T16:28:00.874Z,100357.94
2022-10-10T16:30:29.573Z,100357.03
2022-10-10T16:32:59.116Z,100364.97
2022-10-10T16:35:27.823Z,100359.66
2022-10-10T16:37:56.244Z,100364.03
2022-10-10T16:40:24.630Z,100367.56
2022-10-10T16:42:54.332Z,100371.94
2022-10-10T16:45:22.641Z,100378.09
2022-10-10T16:47:50.985Z,100386.91
2022-10-10T16:50:19.652Z,100393.03
2022-10-10T16:52:47.976Z,100396.56
2022-10-10T16:55:16.413Z,100406.22
2022-10-10T16:57:44.750Z,100414.09
2022-10-10T17:00:15.090Z,100426.44
2022-10-10T17:02:43.479Z,100422.88
2022-10-10T17:05:11.771Z,100421.94
2022-10-10T17:07:40.191Z,100420.16
2022-10-10T17:10:09.434Z,100435.97
2022-10-10T17:12:37.780Z,100440.34
2022-10-10T17:15:07.183Z,100448.25
2022-10-10T17:17:37.842Z,100455.22
2022-10-10T17:20:07.559Z,100454.31
2022-10-10T17:22:36.200Z,100463.06
2022-10-10T17:25:05.178Z,100462.16
2022-10-10T17:27:35.057Z,100475.31
2022-10-10T17:30:03.512Z,100477.91
2022-10-10T17:32:31.928Z,100479.63
2022-10-10T17:35:01.700Z,100497.19
2022-10-10T17:37:30.067Z,100488.31
2022-10-10T17:39:58.435Z,100491.78
2022-10-10T17:42:26.977Z,100497.00
2022-10-10T17:44:59.186Z,100502.28
2022-10-10T17:47:28.167Z,100518.09
2022-10-10T17:49:56.464Z,100526.84
2022-10-10T17:52:26.683Z,100528.56
2022-10-10T17:54:55.017Z,100535.47
2022-10-10T17:57:23.371Z,100554.78
2022-10-10T17:59:51.790Z,100558.16
2022-10-10T18:02:20.257Z,100564.22
2022-10-10T18:04:48.749Z,100569.38
2022-10-10T18:07:18.688Z,100571.91
2022-10-10T18:09:51.313Z,100587.66
2022-10-10T18:12:20.194Z,100581.44
2022-10-10T18:14:48.730Z,100596.31
2022-10-10T18:17:17.070Z,100604.94
2022-10-10T18:19:45.681Z,100603.97
2022-10-10T18:22:14.100Z,100618.78
2022-10-10T18:24:42.522Z,100611.66
2022-10-10T18:27:12.371Z,100620.34
2022-10-10T18:29:42.502Z,100623.81
2022-10-10T18:32:10.871Z,100631.59
2022-10-10T18:34:39.505Z,100628.91
2022-10-10T18:37:08.062Z,100636.72
2022-10-10T18:39:37.479Z,100634.00
2022-10-10T18:42:07.818Z,100643.59
2022-10-10T18:44:38.002Z,100641.75
2022-10-10T18:47:06.749Z,100651.38
2022-10-10T18:49:35.420Z,100647.75
2022-10-10T18:52:03.975Z,100652.03
2022-10-10T18:54:33.300Z,100659.81
2022-10-10T18:57:01.935Z,100661.53
2022-10-10T18:59:32.015Z,100660.59
2022-10-10T19:02:02.055Z,100668.50
2022-10-10T19:04:30.407Z,100671.97
2022-10-10T19:06:58.939Z,100670.16
2022-10-10T19:09:27.705Z,100676.25
2022-10-10T19:11:56.087Z,100681.50
2022-10-10T19:14:24.498Z,100681.47
2022-10-10T19:16:52.864Z,100684.91
2022-10-10T19:19:23.752Z,100692.78
2022-10-10T19:21:52.504Z,100688.38
2022-10-10T19:24:22.337Z,100695.34
2022-10-10T19:26:53.315Z,100705.81
2022-10-10T19:29:22.736Z,100713.66
2022-10-10T19:31:51.616Z,100717.06
2022-10-10T19:34:20.144Z,100722.28
2022-10-10T19:36:50.026Z,100718.66
2022-10-10T19:39:18.423Z,100724.63
2022-10-10T19:41:46.806Z,100736.78
2022-10-10T19:44:15.226Z,100736.63
2022-10-10T19:46:43.693Z,100745.31
2022-10-10T19:49:12.221Z,100747.78
2022-10-10T19:51:40.557Z,100745.94
2022-10-10T19:54:10.413Z,100747.53
2022-10-10T19:56:38.984Z,100743.91
2022-10-10T19:59:07.392Z,100755.22
2022-10-10T20:01:36.095Z,100758.63
2022-10-10T20:04:04.557Z,100764.63
2022-10-10T20:06:32.946Z,100763.63
2022-10-10T20:09:01.465Z,100768.69
2022-10-10T20:11:31.201Z,100769.44
2022-10-10T20:13:59.807Z,100779.78
2022-10-10T20:16:28.615Z,100773.44
2022-10-10T20:18:58.811Z,100769.75
2022-10-10T20:21:31.351Z,100781.00
2022-10-10T20:24:01.162Z,100789.59
2022-10-10T20:26:31.005Z,100789.41
2022-10-10T20:28:59.924Z,100792.81
2022-10-10T20:31:30.717Z,100799.56
2022-10-10T20:34:01.646Z,100809.06
2022-10-10T20:36:30.852Z,100809.75
2022-10-10T20:39:02.661Z,100815.66
2022-10-10T20:41:34.438Z,100814.63
2022-10-10T20:44:04.986Z,100814.44
2022-10-10T20:46:34.978Z,100826.44
2022-10-10T20:49:05.288Z,100830.59
2022-10-10T20:51:33.593Z,100834.78
2022-10-10T20:54:04.431Z,100838.06
2022-10-10T20:56:35.962Z,100840.47
2022-10-10T20:59:04.718Z,100844.56
2022-10-10T21:01:33.093Z,100835.66
2022-10-10T21:04:01.883Z,100852.09
2022-10-10T21:06:32.161Z,100852.78
2022-10-10T21:09:01.732Z,100856.00
2022-10-10T21:11:30.045Z,100860.16
2022-10-10T21:14:00.941Z,100860.00
2022-10-10T21:16:31.781Z,100859.81
2022-10-10T21:19:00.814Z,100863.97
2022-10-10T21:21:30.899Z,100865.53
2022-10-10T21:23:59.279Z,100867.94
2022-10-10T21:26:29.534Z,100868.56
2022-10-10T21:29:00.739Z,100876.22
2022-10-10T21:31:31.566Z,100875.97
2022-10-10T21:34:02.061Z,100886.28
2022-10-10T21:36:31.542Z,100887.84
2022-10-10T21:39:01.711Z,100888.53
2022-10-10T21:41:30.293Z,100891.75
2022-10-10T21:44:01.201Z,100893.22
2022-10-10T21:46:35.831Z,100895.72
2022-10-10T21:49:06.427Z,100895.41
2022-10-10T21:51:37.844Z,100896.94
2022-10-10T21:54:07.268Z,100903.69
2022-10-10T21:56:36.473Z,100901.72
2022-10-10T21:59:06.674Z,100902.34
2022-10-10T22:01:37.349Z,100906.47
2022-10-10T22:04:06.883Z,100914.97
2022-10-10T22:06:35.483Z,100915.69
2022-10-10T22:09:04.263Z,100917.25
2022-10-10T22:11:34.372Z,100924.13
2022-10-10T22:14:03.416Z,100916.91
2022-10-10T22:16:34.629Z,100922.84
2022-10-10T22:19:04.259Z,100925.25
2022-10-10T22:21:34.715Z,100928.53
2022-10-10T22:24:18.626Z,100927.47
2022-10-10T22:26:46.978Z,100921.13
2022-10-10T22:29:15.418Z,100930.59
2022-10-10T22:31:45.172Z,100918.22
2022-10-10T22:34:13.564Z,100930.28
2022-10-10T22:36:41.873Z,100925.72
2022-10-10T22:39:11.096Z,100926.38
2022-10-10T22:41:39.803Z,100928.78
2022-10-10T22:44:08.463Z,100937.31
2022-10-10T22:46:37.207Z,100932.72
2022-10-10T22:49:07.019Z,100929.00
2022-10-10T22:51:35.431Z,100931.44
2022-10-10T22:54:03.800Z,100945.22
2022-10-10T22:56:32.223Z,100944.16
2022-10-10T22:59:00.721Z,100944.91
2022-10-10T23:01:29.240Z,100943.78
2022-10-10T23:04:00.558Z,100944.53
2022-10-10T23:06:30.550Z,100949.47
2022-10-10T23:08:59.359Z,100951.06
2022-10-10T23:11:27.975Z,100955.19
2022-10-10T23:13:56.258Z,100951.53
2022-10-10T23:16:24.901Z,100956.59
2022-10-10T23:18:53.336Z,100953.78
2022-10-10T23:21:21.975Z,100965.81
2022-10-10T23:23:52.505Z,100958.66
2022-10-10T23:26:21.021Z,100963.59
2022-10-10T23:28:50.723Z,100956.44
2022-10-10T23:31:19.123Z,100968.53
2022-10-10T23:33:47.634Z,100968.38
2022-10-10T23:36:16.916Z,100963.84
2022-10-10T23:38:45.360Z,100966.31
2022-10-10T23:41:15.476Z,100967.81
2022-10-10T23:43:44.144Z,100967.66
2022-10-10T23:46:12.673Z,100969.16
2022-10-10T23:48:41.127Z,100972.44
2022-10-10T23:51:09.578Z,100973.19
2022-10-10T23:53:38.272Z,100975.56
2022-10-10T23:56:07.512Z,100979.00
2022-10-10T23:58:37.843Z,100983.16
